sensor_id;sensor_type;location;lat;lon;timestamp;P1;durP1;ratioP1;P2;durP2;ratioP2
33094;SDS011;19459;53.044;8.910;2024-02-26T00:01:43;14.55;;;10.18;;
33094;SDS011;19459;53.044;8.910;2024-02-26T00:04:09;13.50;;;9.85;;
33094;SDS011;19459;53.044;8.910;2024-02-26T00:06:36;14.18;;;9.23;;
33094;SDS011;19459;53.044;8.910;2024-02-26T00:09:02;13.27;;;9.52;;
33094;SDS011;19459;53.044;8.910;2024-02-26T00:11:30;14.32;;;9.27;;
33094;SDS011;19459;53.044;8.910;2024-02-26T00:13:57;13.38;;;9.38;;
33094;SDS011;19459;53.044;8.910;2024-02-26T00:16:23;12.98;;;9.70;;
33094;SDS011;19459;53.044;8.910;2024-02-26T00:18:49;14.35;;;9.77;;
33094;SDS011;19459;53.044;8.910;2024-02-26T00:21:15;14.02;;;10.07;;
33094;SDS011;19459;53.044;8.910;2024-02-26T00:23:41;13.80;;;9.95;;
33094;SDS011;19459;53.044;8.910;2024-02-26T00:26:06;14.98;;;10.05;;
33094;SDS011;19459;53.044;8.910;2024-02-26T00:28:33;15.10;;;10.52;;
33094;SDS011;19459;53.044;8.910;2024-02-26T00:30:59;15.20;;;11.23;;
33094;SDS011;19459;53.044;8.910;2024-02-26T00:33:24;14.88;;;11.05;;
33094;SDS011;19459;53.044;8.910;2024-02-26T00:35:50;16.25;;;10.65;;
33094;SDS011;19459;53.044;8.910;2024-02-26T00:38:16;13.80;;;10.68;;
33094;SDS011;19459;53.044;8.910;2024-02-26T00:40:42;12.45;;;9.32;;
33094;SDS011;19459;53.044;8.910;2024-02-26T00:43:07;13.23;;;10.68;;
33094;SDS011;19459;53.044;8.910;2024-02-26T00:45:33;14.02;;;10.23;;
33094;SDS011;19459;53.044;8.910;2024-02-26T00:47:59;15.70;;;10.98;;
33094;SDS011;19459;53.044;8.910;2024-02-26T00:50:36;13.77;;;10.60;;
33094;SDS011;19459;53.044;8.910;2024-02-26T00:53:02;15.38;;;10.90;;
33094;SDS011;19459;53.044;8.910;2024-02-26T00:55:28;14.90;;;10.68;;
33094;SDS011;19459;53.044;8.910;2024-02-26T00:57:53;18.58;;;12.10;;
33094;SDS011;19459;53.044;8.910;2024-02-26T01:00:19;16.10;;;11.20;;
33094;SDS011;19459;53.044;8.910;2024-02-26T01:02:46;15.65;;;11.85;;
33094;SDS011;19459;53.044;8.910;2024-02-26T01:05:12;14.45;;;11.40;;
33094;SDS011;19459;53.044;8.910;2024-02-26T01:07:39;17.40;;;11.68;;
33094;SDS011;19459;53.044;8.910;2024-02-26T01:10:05;15.20;;;11.20;;
33094;SDS011;19459;53.044;8.910;2024-02-26T01:12:32;15.30;;;11.30;;
33094;SDS011;19459;53.044;8.910;2024-02-26T01:14:59;16.25;;;11.38;;
33094;SDS011;19459;53.044;8.910;2024-02-26T01:17:28;16.63;;;11.02;;
33094;SDS011;19459;53.044;8.910;2024-02-26T01:19:54;15.75;;;11.65;;
33094;SDS011;19459;53.044;8.910;2024-02-26T01:22:20;16.40;;;11.68;;
33094;SDS011;19459;53.044;8.910;2024-02-26T01:24:46;14.50;;;11.02;;
33094;SDS011;19459;53.044;8.910;2024-02-26T01:27:12;16.17;;;11.50;;
33094;SDS011;19459;53.044;8.910;2024-02-26T01:29:39;16.15;;;11.93;;
33094;SDS011;19459;53.044;8.910;2024-02-26T01:32:05;17.27;;;12.65;;
33094;SDS011;19459;53.044;8.910;2024-02-26T01:34:31;19.20;;;12.75;;
33094;SDS011;19459;53.044;8.910;2024-02-26T01:36:57;20.65;;;13.07;;
33094;SDS011;19459;53.044;8.910;2024-02-26T01:39:23;18.13;;;12.93;;
33094;SDS011;19459;53.044;8.910;2024-02-26T01:41:49;19.67;;;13.27;;
33094;SDS011;19459;53.044;8.910;2024-02-26T01:44:14;19.80;;;14.23;;
33094;SDS011;19459;53.044;8.910;2024-02-26T01:46:40;21.98;;;13.98;;
33094;SDS011;19459;53.044;8.910;2024-02-26T01:49:07;19.92;;;12.98;;
33094;SDS011;19459;53.044;8.910;2024-02-26T01:51:37;20.42;;;13.43;;
33094;SDS011;19459;53.044;8.910;2024-02-26T01:54:04;19.35;;;13.48;;
33094;SDS011;19459;53.044;8.910;2024-02-26T01:56:33;19.55;;;13.45;;
33094;SDS011;19459;53.044;8.910;2024-02-26T01:59:00;22.10;;;13.40;;
33094;SDS011;19459;53.044;8.910;2024-02-26T02:01:31;19.02;;;13.02;;
33094;SDS011;19459;53.044;8.910;2024-02-26T02:03:58;19.17;;;13.18;;
33094;SDS011;19459;53.044;8.910;2024-02-26T02:06:25;16.90;;;13.07;;
33094;SDS011;19459;53.044;8.910;2024-02-26T02:08:53;18.98;;;13.60;;
33094;SDS011;19459;53.044;8.910;2024-02-26T02:11:19;17.70;;;12.85;;
33094;SDS011;19459;53.044;8.910;2024-02-26T02:13:48;17.65;;;12.85;;
33094;SDS011;19459;53.044;8.910;2024-02-26T02:16:14;18.83;;;13.68;;
33094;SDS011;19459;53.044;8.910;2024-02-26T02:18:39;17.50;;;12.98;;
33094;SDS011;19459;53.044;8.910;2024-02-26T02:21:05;19.38;;;12.75;;
33094;SDS011;19459;53.044;8.910;2024-02-26T02:23:31;18.92;;;13.65;;
33094;SDS011;19459;53.044;8.910;2024-02-26T02:25:57;17.98;;;13.07;;
33094;SDS011;19459;53.044;8.910;2024-02-26T02:28:24;18.60;;;13.38;;
33094;SDS011;19459;53.044;8.910;2024-02-26T02:30:51;23.13;;;13.40;;
33094;SDS011;19459;53.044;8.910;2024-02-26T02:33:17;18.48;;;14.35;;
33094;SDS011;19459;53.044;8.910;2024-02-26T02:35:43;18.90;;;14.25;;
33094;SDS011;19459;53.044;8.910;2024-02-26T02:38:09;18.80;;;13.10;;
33094;SDS011;19459;53.044;8.910;2024-02-26T02:40:35;18.02;;;13.68;;
33094;SDS011;19459;53.044;8.910;2024-02-26T02:43:01;20.33;;;12.85;;
33094;SDS011;19459;53.044;8.910;2024-02-26T02:45:30;18.20;;;13.15;;
33094;SDS011;19459;53.044;8.910;2024-02-26T02:47:56;21.10;;;13.70;;
33094;SDS011;19459;53.044;8.910;2024-02-26T02:50:22;19.33;;;13.10;;
33094;SDS011;19459;53.044;8.910;2024-02-26T02:52:48;17.45;;;13.35;;
33094;SDS011;19459;53.044;8.910;2024-02-26T02:55:15;18.27;;;12.52;;
33094;SDS011;19459;53.044;8.910;2024-02-26T02:57:41;20.10;;;13.95;;
33094;SDS011;19459;53.044;8.910;2024-02-26T03:00:08;18.38;;;13.35;;
33094;SDS011;19459;53.044;8.910;2024-02-26T03:02:35;19.67;;;13.65;;
33094;SDS011;19459;53.044;8.910;2024-02-26T03:05:01;19.30;;;13.07;;
33094;SDS011;19459;53.044;8.910;2024-02-26T03:07:31;22.00;;;14.32;;
33094;SDS011;19459;53.044;8.910;2024-02-26T03:09:56;19.25;;;13.32;;
33094;SDS011;19459;53.044;8.910;2024-02-26T03:12:22;20.17;;;15.13;;
33094;SDS011;19459;53.044;8.910;2024-02-26T03:14:48;20.30;;;14.25;;
33094;SDS011;19459;53.044;8.910;2024-02-26T03:17:14;19.90;;;13.73;;
33094;SDS011;19459;53.044;8.910;2024-02-26T03:19:40;20.67;;;14.45;;
33094;SDS011;19459;53.044;8.910;2024-02-26T03:22:06;21.70;;;14.60;;
33094;SDS011;19459;53.044;8.910;2024-02-26T03:24:32;19.63;;;14.30;;
33094;SDS011;19459;53.044;8.910;2024-02-26T03:26:58;25.65;;;16.00;;
33094;SDS011;19459;53.044;8.910;2024-02-26T03:29:24;22.55;;;14.35;;
33094;SDS011;19459;53.044;8.910;2024-02-26T03:31:49;19.50;;;14.40;;
33094;SDS011;19459;53.044;8.910;2024-02-26T03:34:15;21.83;;;15.55;;
33094;SDS011;19459;53.044;8.910;2024-02-26T03:36:42;21.30;;;15.30;;
33094;SDS011;19459;53.044;8.910;2024-02-26T03:39:08;21.40;;;14.55;;
33094;SDS011;19459;53.044;8.910;2024-02-26T03:41:34;18.50;;;14.18;;
33094;SDS011;19459;53.044;8.910;2024-02-26T03:44:00;22.63;;;14.85;;
33094;SDS011;19459;53.044;8.910;2024-02-26T03:46:26;18.88;;;13.65;;
33094;SDS011;19459;53.044;8.910;2024-02-26T03:48:52;21.83;;;14.88;;
33094;SDS011;19459;53.044;8.910;2024-02-26T03:51:18;21.38;;;13.82;;
33094;SDS011;19459;53.044;8.910;2024-02-26T03:53:47;16.60;;;12.73;;
33094;SDS011;19459;53.044;8.910;2024-02-26T03:56:13;18.58;;;13.27;;
33094;SDS011;19459;53.044;8.910;2024-02-26T03:58:38;18.20;;;13.35;;
33094;SDS011;19459;53.044;8.910;2024-02-26T04:01:07;17.77;;;13.50;;
33094;SDS011;19459;53.044;8.910;2024-02-26T04:03:33;18.83;;;13.23;;
33094;SDS011;19459;53.044;8.910;2024-02-26T04:06:00;18.88;;;13.23;;
33094;SDS011;19459;53.044;8.910;2024-02-26T04:08:26;18.75;;;13.73;;
33094;SDS011;19459;53.044;8.910;2024-02-26T04:10:52;17.85;;;12.90;;
33094;SDS011;19459;53.044;8.910;2024-02-26T04:13:18;18.90;;;13.65;;
33094;SDS011;19459;53.044;8.910;2024-02-26T04:15:44;17.40;;;12.68;;
33094;SDS011;19459;53.044;8.910;2024-02-26T04:18:11;18.92;;;13.27;;
33094;SDS011;19459;53.044;8.910;2024-02-26T04:20:40;18.13;;;13.57;;
33094;SDS011;19459;53.044;8.910;2024-02-26T04:23:07;18.95;;;13.40;;
33094;SDS011;19459;53.044;8.910;2024-02-26T04:25:33;22.80;;;14.65;;
33094;SDS011;19459;53.044;8.910;2024-02-26T04:27:58;18.80;;;13.27;;
33094;SDS011;19459;53.044;8.910;2024-02-26T04:30:24;20.20;;;14.30;;
33094;SDS011;19459;53.044;8.910;2024-02-26T04:32:50;20.55;;;13.80;;
33094;SDS011;19459;53.044;8.910;2024-02-26T04:35:16;18.77;;;14.23;;
33094;SDS011;19459;53.044;8.910;2024-02-26T04:37:42;21.05;;;13.02;;
33094;SDS011;19459;53.044;8.910;2024-02-26T04:40:08;23.10;;;14.02;;
33094;SDS011;19459;53.044;8.910;2024-02-26T04:42:34;20.52;;;13.57;;
33094;SDS011;19459;53.044;8.910;2024-02-26T04:45:00;19.58;;;13.40;;
33094;SDS011;19459;53.044;8.910;2024-02-26T04:47:25;20.40;;;14.05;;
33094;SDS011;19459;53.044;8.910;2024-02-26T04:49:51;18.73;;;14.05;;
33094;SDS011;19459;53.044;8.910;2024-02-26T04:52:17;20.98;;;14.18;;
33094;SDS011;19459;53.044;8.910;2024-02-26T04:54:44;22.17;;;14.13;;
33094;SDS011;19459;53.044;8.910;2024-02-26T04:57:09;19.73;;;13.63;;
33094;SDS011;19459;53.044;8.910;2024-02-26T04:59:35;20.25;;;13.65;;
33094;SDS011;19459;53.044;8.910;2024-02-26T05:02:01;24.90;;;14.07;;
33094;SDS011;19459;53.044;8.910;2024-02-26T05:04:29;18.38;;;13.48;;
33094;SDS011;19459;53.044;8.910;2024-02-26T05:06:55;20.85;;;14.68;;
33094;SDS011;19459;53.044;8.910;2024-02-26T05:09:21;19.58;;;13.80;;
33094;SDS011;19459;53.044;8.910;2024-02-26T05:11:47;20.80;;;14.50;;
33094;SDS011;19459;53.044;8.910;2024-02-26T05:14:13;21.08;;;14.68;;
33094;SDS011;19459;53.044;8.910;2024-02-26T05:16:39;21.60;;;13.98;;
33094;SDS011;19459;53.044;8.910;2024-02-26T05:19:04;21.05;;;15.10;;
33094;SDS011;19459;53.044;8.910;2024-02-26T05:21:31;22.13;;;15.68;;
33094;SDS011;19459;53.044;8.910;2024-02-26T05:23:56;20.98;;;14.70;;
33094;SDS011;19459;53.044;8.910;2024-02-26T05:26:22;22.83;;;15.25;;
33094;SDS011;19459;53.044;8.910;2024-02-26T05:28:48;20.85;;;13.95;;
33094;SDS011;19459;53.044;8.910;2024-02-26T05:31:15;21.63;;;13.90;;
33094;SDS011;19459;53.044;8.910;2024-02-26T05:33:41;22.10;;;14.80;;
33094;SDS011;19459;53.044;8.910;2024-02-26T05:36:07;21.05;;;14.25;;
33094;SDS011;19459;53.044;8.910;2024-02-26T05:38:33;22.58;;;15.00;;
33094;SDS011;19459;53.044;8.910;2024-02-26T05:40:59;22.63;;;14.20;;
33094;SDS011;19459;53.044;8.910;2024-02-26T05:43:25;25.77;;;16.90;;
33094;SDS011;19459;53.044;8.910;2024-02-26T05:45:52;24.92;;;16.92;;
33094;SDS011;19459;53.044;8.910;2024-02-26T05:48:18;32.72;;;16.40;;
33094;SDS011;19459;53.044;8.910;2024-02-26T05:50:45;24.73;;;15.95;;
33094;SDS011;19459;53.044;8.910;2024-02-26T05:53:11;22.98;;;15.65;;
33094;SDS011;19459;53.044;8.910;2024-02-26T05:55:37;26.25;;;17.13;;
33094;SDS011;19459;53.044;8.910;2024-02-26T05:58:03;27.13;;;17.70;;
33094;SDS011;19459;53.044;8.910;2024-02-26T06:00:29;28.50;;;17.65;;
33094;SDS011;19459;53.044;8.910;2024-02-26T06:02:55;25.35;;;16.73;;
33094;SDS011;19459;53.044;8.910;2024-02-26T06:05:20;26.98;;;17.13;;
33094;SDS011;19459;53.044;8.910;2024-02-26T06:07:46;30.25;;;17.52;;
33094;SDS011;19459;53.044;8.910;2024-02-26T06:10:12;29.70;;;19.23;;
33094;SDS011;19459;53.044;8.910;2024-02-26T06:12:41;27.58;;;18.02;;
33094;SDS011;19459;53.044;8.910;2024-02-26T06:15:07;29.02;;;18.63;;
33094;SDS011;19459;53.044;8.910;2024-02-26T06:17:34;28.33;;;18.83;;
33094;SDS011;19459;53.044;8.910;2024-02-26T06:20:00;33.80;;;19.80;;
33094;SDS011;19459;53.044;8.910;2024-02-26T06:22:26;28.45;;;19.25;;
33094;SDS011;19459;53.044;8.910;2024-02-26T06:24:52;33.35;;;21.20;;
33094;SDS011;19459;53.044;8.910;2024-02-26T06:27:17;34.05;;;20.80;;
33094;SDS011;19459;53.044;8.910;2024-02-26T06:29:43;32.63;;;20.00;;
33094;SDS011;19459;53.044;8.910;2024-02-26T06:32:09;35.72;;;22.05;;
33094;SDS011;19459;53.044;8.910;2024-02-26T06:34:35;37.40;;;21.92;;
33094;SDS011;19459;53.044;8.910;2024-02-26T06:37:01;34.20;;;20.77;;
33094;SDS011;19459;53.044;8.910;2024-02-26T06:39:28;36.03;;;22.10;;
33094;SDS011;19459;53.044;8.910;2024-02-26T06:41:54;32.70;;;22.33;;
33094;SDS011;19459;53.044;8.910;2024-02-26T06:44:25;33.65;;;20.27;;
33094;SDS011;19459;53.044;8.910;2024-02-26T06:46:56;35.03;;;21.10;;
33094;SDS011;19459;53.044;8.910;2024-02-26T06:49:25;33.30;;;20.55;;
33094;SDS011;19459;53.044;8.910;2024-02-26T06:51:52;35.78;;;21.70;;
33094;SDS011;19459;53.044;8.910;2024-02-26T06:54:18;32.85;;;20.50;;
33094;SDS011;19459;53.044;8.910;2024-02-26T06:56:43;39.78;;;24.58;;
33094;SDS011;19459;53.044;8.910;2024-02-26T06:59:09;38.17;;;23.42;;
33094;SDS011;19459;53.044;8.910;2024-02-26T07:01:41;41.53;;;24.63;;
33094;SDS011;19459;53.044;8.910;2024-02-26T07:04:11;48.15;;;25.90;;
33094;SDS011;19459;53.044;8.910;2024-02-26T07:06:38;42.72;;;24.75;;
33094;SDS011;19459;53.044;8.910;2024-02-26T07:09:04;53.17;;;28.73;;
33094;SDS011;19459;53.044;8.910;2024-02-26T07:11:30;46.78;;;27.20;;
33094;SDS011;19459;53.044;8.910;2024-02-26T07:13:55;47.00;;;27.70;;
33094;SDS011;19459;53.044;8.910;2024-02-26T07:16:21;49.88;;;29.55;;
33094;SDS011;19459;53.044;8.910;2024-02-26T07:18:47;50.53;;;28.85;;
33094;SDS011;19459;53.044;8.910;2024-02-26T07:21:12;52.42;;;28.92;;
33094;SDS011;19459;53.044;8.910;2024-02-26T07:23:38;50.95;;;28.90;;
33094;SDS011;19459;53.044;8.910;2024-02-26T07:26:04;56.78;;;30.98;;
33094;SDS011;19459;53.044;8.910;2024-02-26T07:28:30;55.85;;;31.30;;
33094;SDS011;19459;53.044;8.910;2024-02-26T07:30:56;54.53;;;32.08;;
33094;SDS011;19459;53.044;8.910;2024-02-26T07:33:22;56.95;;;30.23;;
33094;SDS011;19459;53.044;8.910;2024-02-26T07:35:48;61.53;;;32.00;;
33094;SDS011;19459;53.044;8.910;2024-02-26T07:38:13;68.50;;;33.20;;
33094;SDS011;19459;53.044;8.910;2024-02-26T07:40:39;60.03;;;33.38;;
33094;SDS011;19459;53.044;8.910;2024-02-26T07:43:05;62.15;;;34.22;;
33094;SDS011;19459;53.044;8.910;2024-02-26T07:45:31;63.92;;;34.35;;
33094;SDS011;19459;53.044;8.910;2024-02-26T07:47:56;67.07;;;33.88;;
33094;SDS011;19459;53.044;8.910;2024-02-26T07:50:22;67.65;;;34.83;;
33094;SDS011;19459;53.044;8.910;2024-02-26T07:52:48;66.47;;;34.97;;
33094;SDS011;19459;53.044;8.910;2024-02-26T07:55:16;62.00;;;32.58;;
33094;SDS011;19459;53.044;8.910;2024-02-26T07:57:42;63.78;;;34.03;;
33094;SDS011;19459;53.044;8.910;2024-02-26T08:00:11;67.70;;;34.03;;
33094;SDS011;19459;53.044;8.910;2024-02-26T08:02:41;68.35;;;35.03;;
33094;SDS011;19459;53.044;8.910;2024-02-26T08:05:09;63.22;;;35.33;;
33094;SDS011;19459;53.044;8.910;2024-02-26T08:07:35;67.75;;;35.95;;
33094;SDS011;19459;53.044;8.910;2024-02-26T08:10:01;72.72;;;35.38;;
33094;SDS011;19459;53.044;8.910;2024-02-26T08:12:26;68.78;;;34.33;;
33094;SDS011;19459;53.044;8.910;2024-02-26T08:14:52;65.57;;;34.53;;
33094;SDS011;19459;53.044;8.910;2024-02-26T08:17:18;65.43;;;36.25;;
33094;SDS011;19459;53.044;8.910;2024-02-26T08:19:43;63.90;;;33.40;;
33094;SDS011;19459;53.044;8.910;2024-02-26T08:22:09;63.83;;;32.53;;
33094;SDS011;19459;53.044;8.910;2024-02-26T08:24:41;64.72;;;35.83;;
33094;SDS011;19459;53.044;8.910;2024-02-26T08:27:07;64.00;;;32.88;;
33094;SDS011;19459;53.044;8.910;2024-02-26T08:29:33;57.67;;;31.15;;
33094;SDS011;19459;53.044;8.910;2024-02-26T08:31:59;55.85;;;31.83;;
33094;SDS011;19459;53.044;8.910;2024-02-26T08:34:25;62.85;;;33.97;;
33094;SDS011;19459;53.044;8.910;2024-02-26T08:36:51;65.40;;;32.17;;
33094;SDS011;19459;53.044;8.910;2024-02-26T08:39:17;59.42;;;30.98;;
33094;SDS011;19459;53.044;8.910;2024-02-26T08:41:46;61.03;;;33.83;;
33094;SDS011;19459;53.044;8.910;2024-02-26T08:44:11;56.97;;;31.17;;
33094;SDS011;19459;53.044;8.910;2024-02-26T08:46:37;64.03;;;33.63;;
33094;SDS011;19459;53.044;8.910;2024-02-26T08:49:03;64.47;;;32.38;;
33094;SDS011;19459;53.044;8.910;2024-02-26T08:51:29;61.10;;;33.53;;
33094;SDS011;19459;53.044;8.910;2024-02-26T08:53:55;62.10;;;34.70;;
33094;SDS011;19459;53.044;8.910;2024-02-26T08:56:21;58.38;;;32.05;;
33094;SDS011;19459;53.044;8.910;2024-02-26T08:58:47;66.55;;;33.65;;
33094;SDS011;19459;53.044;8.910;2024-02-26T09:01:18;65.70;;;34.53;;
33094;SDS011;19459;53.044;8.910;2024-02-26T09:03:44;64.07;;;32.92;;
33094;SDS011;19459;53.044;8.910;2024-02-26T09:06:10;58.22;;;31.20;;
33094;SDS011;19459;53.044;8.910;2024-02-26T09:08:40;62.00;;;32.17;;
33094;SDS011;19459;53.044;8.910;2024-02-26T09:11:06;64.15;;;32.22;;
33094;SDS011;19459;53.044;8.910;2024-02-26T09:13:31;54.75;;;29.42;;
33094;SDS011;19459;53.044;8.910;2024-02-26T09:15:57;63.22;;;31.45;;
33094;SDS011;19459;53.044;8.910;2024-02-26T09:18:24;56.42;;;29.65;;
33094;SDS011;19459;53.044;8.910;2024-02-26T09:20:50;50.70;;;29.02;;
33094;SDS011;19459;53.044;8.910;2024-02-26T09:23:16;50.50;;;27.00;;
33094;SDS011;19459;53.044;8.910;2024-02-26T09:25:41;51.78;;;28.42;;
33094;SDS011;19459;53.044;8.910;2024-02-26T09:28:07;56.58;;;28.15;;
33094;SDS011;19459;53.044;8.910;2024-02-26T09:30:33;47.80;;;28.05;;
33094;SDS011;19459;53.044;8.910;2024-02-26T09:32:58;56.33;;;27.95;;
33094;SDS011;19459;53.044;8.910;2024-02-26T09:35:24;47.42;;;25.73;;
33094;SDS011;19459;53.044;8.910;2024-02-26T09:37:51;54.25;;;27.67;;
33094;SDS011;19459;53.044;8.910;2024-02-26T09:40:18;47.38;;;24.48;;
33094;SDS011;19459;53.044;8.910;2024-02-26T09:42:45;42.42;;;23.98;;
33094;SDS011;19459;53.044;8.910;2024-02-26T09:45:12;46.22;;;24.90;;
33094;SDS011;19459;53.044;8.910;2024-02-26T09:47:47;46.60;;;25.02;;
33094;SDS011;19459;53.044;8.910;2024-02-26T09:50:15;35.53;;;20.92;;
33094;SDS011;19459;53.044;8.910;2024-02-26T09:52:43;38.92;;;23.42;;
33094;SDS011;19459;53.044;8.910;2024-02-26T09:55:09;39.25;;;22.70;;
33094;SDS011;19459;53.044;8.910;2024-02-26T09:57:38;37.67;;;21.83;;
33094;SDS011;19459;53.044;8.910;2024-02-26T10:00:10;42.17;;;21.45;;
33094;SDS011;19459;53.044;8.910;2024-02-26T10:02:44;35.45;;;20.13;;
33094;SDS011;19459;53.044;8.910;2024-02-26T10:05:12;33.72;;;19.05;;
33094;SDS011;19459;53.044;8.910;2024-02-26T10:07:43;32.53;;;19.48;;
33094;SDS011;19459;53.044;8.910;2024-02-26T10:10:10;33.80;;;21.02;;
33094;SDS011;19459;53.044;8.910;2024-02-26T10:12:36;32.13;;;17.73;;
33094;SDS011;19459;53.044;8.910;2024-02-26T10:15:01;30.27;;;18.55;;
33094;SDS011;19459;53.044;8.910;2024-02-26T10:17:27;29.40;;;17.73;;
33094;SDS011;19459;53.044;8.910;2024-02-26T10:19:54;26.95;;;16.50;;
33094;SDS011;19459;53.044;8.910;2024-02-26T10:22:36;27.55;;;16.10;;
33094;SDS011;19459;53.044;8.910;2024-02-26T10:25:02;24.58;;;16.77;;
33094;SDS011;19459;53.044;8.910;2024-02-26T10:27:29;23.05;;;14.95;;
33094;SDS011;19459;53.044;8.910;2024-02-26T10:29:56;25.08;;;15.23;;
33094;SDS011;19459;53.044;8.910;2024-02-26T10:32:22;23.33;;;14.85;;
33094;SDS011;19459;53.044;8.910;2024-02-26T10:34:49;20.08;;;13.40;;
33094;SDS011;19459;53.044;8.910;2024-02-26T10:37:22;20.23;;;13.15;;
33094;SDS011;19459;53.044;8.910;2024-02-26T10:39:48;20.40;;;13.63;;
33094;SDS011;19459;53.044;8.910;2024-02-26T10:43:25;20.10;;;12.70;;
33094;SDS011;19459;53.044;8.910;2024-02-26T10:45:51;20.38;;;12.38;;
33094;SDS011;19459;53.044;8.910;2024-02-26T10:48:17;19.58;;;11.35;;
33094;SDS011;19459;53.044;8.910;2024-02-26T10:50:43;18.17;;;11.80;;
33094;SDS011;19459;53.044;8.910;2024-02-26T10:53:16;19.40;;;12.27;;
33094;SDS011;19459;53.044;8.910;2024-02-26T10:56:18;19.70;;;12.35;;
33094;SDS011;19459;53.044;8.910;2024-02-26T10:58:37;18.48;;;11.85;;
33094;SDS011;19459;53.044;8.910;2024-02-26T11:01:03;16.42;;;10.90;;
33094;SDS011;19459;53.044;8.910;2024-02-26T11:03:30;15.10;;;10.50;;
33094;SDS011;19459;53.044;8.910;2024-02-26T11:05:59;17.77;;;10.02;;
33094;SDS011;19459;53.044;8.910;2024-02-26T11:08:26;14.60;;;10.82;;
33094;SDS011;19459;53.044;8.910;2024-02-26T11:10:53;15.88;;;10.85;;
33094;SDS011;19459;53.044;8.910;2024-02-26T11:13:21;16.48;;;10.43;;
33094;SDS011;19459;53.044;8.910;2024-02-26T11:15:50;13.18;;;9.40;;
33094;SDS011;19459;53.044;8.910;2024-02-26T11:18:19;13.15;;;9.05;;
33094;SDS011;19459;53.044;8.910;2024-02-26T11:20:48;12.80;;;9.63;;
33094;SDS011;19459;53.044;8.910;2024-02-26T11:23:16;13.25;;;9.20;;
33094;SDS011;19459;53.044;8.910;2024-02-26T11:25:45;11.55;;;8.77;;
33094;SDS011;19459;53.044;8.910;2024-02-26T11:28:13;15.32;;;9.95;;
33094;SDS011;19459;53.044;8.910;2024-02-26T11:30:43;11.98;;;8.30;;
33094;SDS011;19459;53.044;8.910;2024-02-26T11:33:12;13.60;;;9.13;;
33094;SDS011;19459;53.044;8.910;2024-02-26T11:35:40;12.02;;;8.50;;
33094;SDS011;19459;53.044;8.910;2024-02-26T11:38:06;13.32;;;8.55;;
33094;SDS011;19459;53.044;8.910;2024-02-26T11:40:33;14.63;;;8.57;;
33094;SDS011;19459;53.044;8.910;2024-02-26T11:43:04;12.23;;;8.73;;
33094;SDS011;19459;53.044;8.910;2024-02-26T11:48:11;12.30;;;9.20;;
33094;SDS011;19459;53.044;8.910;2024-02-26T11:50:45;12.65;;;8.55;;
33094;SDS011;19459;53.044;8.910;2024-02-26T11:53:19;13.20;;;9.13;;
33094;SDS011;19459;53.044;8.910;2024-02-26T11:55:46;13.70;;;9.13;;
33094;SDS011;19459;53.044;8.910;2024-02-26T11:58:14;13.23;;;9.68;;
33094;SDS011;19459;53.044;8.910;2024-02-26T12:00:40;15.23;;;9.25;;
33094;SDS011;19459;53.044;8.910;2024-02-26T12:03:06;13.55;;;9.32;;
33094;SDS011;19459;53.044;8.910;2024-02-26T12:05:33;13.50;;;9.15;;
33094;SDS011;19459;53.044;8.910;2024-02-26T12:08:02;12.35;;;8.05;;
33094;SDS011;19459;53.044;8.910;2024-02-26T12:10:35;16.08;;;10.20;;
33094;SDS011;19459;53.044;8.910;2024-02-26T12:13:11;16.00;;;10.93;;
33094;SDS011;19459;53.044;8.910;2024-02-26T12:15:54;16.60;;;11.20;;
33094;SDS011;19459;53.044;8.910;2024-02-26T12:18:22;14.85;;;10.18;;
33094;SDS011;19459;53.044;8.910;2024-02-26T12:20:58;14.75;;;10.88;;
33094;SDS011;19459;53.044;8.910;2024-02-26T12:23:27;13.25;;;10.30;;
33094;SDS011;19459;53.044;8.910;2024-02-26T12:25:53;14.93;;;10.10;;
33094;SDS011;19459;53.044;8.910;2024-02-26T12:28:27;14.82;;;10.13;;
33094;SDS011;19459;53.044;8.910;2024-02-26T12:30:56;13.13;;;9.43;;
33094;SDS011;19459;53.044;8.910;2024-02-26T12:33:24;13.95;;;10.18;;
33094;SDS011;19459;53.044;8.910;2024-02-26T12:35:51;17.02;;;10.60;;
33094;SDS011;19459;53.044;8.910;2024-02-26T12:38:18;14.50;;;9.88;;
33094;SDS011;19459;53.044;8.910;2024-02-26T12:40:44;13.77;;;9.90;;
33094;SDS011;19459;53.044;8.910;2024-02-26T12:43:10;15.57;;;10.25;;
33094;SDS011;19459;53.044;8.910;2024-02-26T12:45:40;15.60;;;10.82;;
33094;SDS011;19459;53.044;8.910;2024-02-26T12:48:06;16.17;;;10.75;;
33094;SDS011;19459;53.044;8.910;2024-02-26T12:50:32;17.17;;;10.73;;
33094;SDS011;19459;53.044;8.910;2024-02-26T12:52:59;15.98;;;11.80;;
33094;SDS011;19459;53.044;8.910;2024-02-26T12:55:25;16.80;;;11.35;;
33094;SDS011;19459;53.044;8.910;2024-02-26T12:57:51;16.00;;;10.75;;
33094;SDS011;19459;53.044;8.910;2024-02-26T13:00:19;13.65;;;9.73;;
33094;SDS011;19459;53.044;8.910;2024-02-26T13:02:51;15.00;;;11.38;;
33094;SDS011;19459;53.044;8.910;2024-02-26T13:05:20;17.38;;;11.70;;
33094;SDS011;19459;53.044;8.910;2024-02-26T13:07:47;17.40;;;10.75;;
33094;SDS011;19459;53.044;8.910;2024-02-26T13:10:13;16.08;;;10.57;;
33094;SDS011;19459;53.044;8.910;2024-02-26T13:12:46;18.65;;;9.70;;
33094;SDS011;19459;53.044;8.910;2024-02-26T13:15:17;15.70;;;9.98;;
33094;SDS011;19459;53.044;8.910;2024-02-26T13:17:45;20.80;;;10.90;;
33094;SDS011;19459;53.044;8.910;2024-02-26T13:20:12;15.20;;;10.02;;
33094;SDS011;19459;53.044;8.910;2024-02-26T13:22:49;14.70;;;10.75;;
33094;SDS011;19459;53.044;8.910;2024-02-26T13:25:19;15.48;;;10.57;;
33094;SDS011;19459;53.044;8.910;2024-02-26T13:27:46;16.25;;;11.25;;
33094;SDS011;19459;53.044;8.910;2024-02-26T13:30:12;14.77;;;10.80;;
33094;SDS011;19459;53.044;8.910;2024-02-26T13:32:38;17.10;;;11.73;;
33094;SDS011;19459;53.044;8.910;2024-02-26T13:35:06;14.65;;;11.05;;
33094;SDS011;19459;53.044;8.910;2024-02-26T13:37:37;14.65;;;10.40;;
33094;SDS011;19459;53.044;8.910;2024-02-26T13:40:08;17.08;;;11.73;;
33094;SDS011;19459;53.044;8.910;2024-02-26T13:42:36;16.77;;;11.23;;
33094;SDS011;19459;53.044;8.910;2024-02-26T13:45:03;15.85;;;10.95;;
33094;SDS011;19459;53.044;8.910;2024-02-26T13:47:33;18.55;;;11.38;;
33094;SDS011;19459;53.044;8.910;2024-02-26T13:50:00;19.25;;;11.77;;
33094;SDS011;19459;53.044;8.910;2024-02-26T13:52:26;17.58;;;12.65;;
33094;SDS011;19459;53.044;8.910;2024-02-26T13:54:52;14.82;;;10.80;;
33094;SDS011;19459;53.044;8.910;2024-02-26T13:57:21;17.85;;;11.77;;
33094;SDS011;19459;53.044;8.910;2024-02-26T13:59:47;16.75;;;11.70;;
33094;SDS011;19459;53.044;8.910;2024-02-26T14:02:13;16.58;;;11.10;;
33094;SDS011;19459;53.044;8.910;2024-02-26T14:04:38;18.88;;;12.68;;
33094;SDS011;19459;53.044;8.910;2024-02-26T14:07:04;15.35;;;10.02;;
33094;SDS011;19459;53.044;8.910;2024-02-26T14:09:31;15.93;;;10.48;;
33094;SDS011;19459;53.044;8.910;2024-02-26T14:11:57;15.57;;;11.15;;
33094;SDS011;19459;53.044;8.910;2024-02-26T14:14:25;18.05;;;12.38;;
33094;SDS011;19459;53.044;8.910;2024-02-26T14:16:53;15.70;;;10.57;;
33094;SDS011;19459;53.044;8.910;2024-02-26T14:19:18;15.30;;;10.15;;
33094;SDS011;19459;53.044;8.910;2024-02-26T14:21:44;20.70;;;11.50;;
33094;SDS011;19459;53.044;8.910;2024-02-26T14:24:10;14.68;;;10.98;;
33094;SDS011;19459;53.044;8.910;2024-02-26T14:26:35;13.20;;;9.80;;